createdAt,value
2023-03-29T00:02:02.890Z,80.42
2023-03-29T00:04:29.812Z,79.99
2023-03-29T00:06:56.973Z,79.47
2023-03-29T00:09:26.560Z,79.50
2023-03-29T00:11:53.413Z,79.29
2023-03-29T00:14:20.240Z,78.43
2023-03-29T00:16:47.151Z,78.34
2023-03-29T00:19:13.962Z,78.20
2023-03-29T00:21:40.924Z,79.14
2023-03-29T00:24:07.864Z,79.06
2023-03-29T00:26:34.875Z,78.90
2023-03-29T00:29:01.825Z,79.18
2023-03-29T00:31:28.694Z,80.46
2023-03-29T00:33:55.874Z,82.10
2023-03-29T00:36:23.345Z,81.54
2023-03-29T00:38:50.038Z,82.31
2023-03-29T00:41:16.889Z,82.61
2023-03-29T00:43:59.870Z,82.16
2023-03-29T00:46:28.427Z,82.67
2023-03-29T00:49:02.304Z,83.81
2023-03-29T00:51:32.928Z,84.63
2023-03-29T00:54:03.494Z,84.29
2023-03-29T00:56:35.350Z,85.31
2023-03-29T00:59:23.777Z,86.49
2023-03-29T01:01:58.744Z,87.53
2023-03-29T01:04:47.682Z,88.16
2023-03-29T01:07:26.011Z,88.21
2023-03-29T01:10:04.632Z,89.11
2023-03-29T01:12:36.098Z,89.34
2023-03-29T01:15:10.013Z,90.55
2023-03-29T01:17:38.711Z,89.85
2023-03-29T01:20:14.384Z,89.65
2023-03-29T01:23:10.397Z,89.33
2023-03-29T01:26:04.553Z,90.78
2023-03-29T01:28:38.836Z,90.54
2023-03-29T01:31:11.224Z,90.26
2023-03-29T01:33:49.171Z,90.05
2023-03-29T01:36:21.219Z,90.24
2023-03-29T01:39:00.890Z,90.60
2023-03-29T01:41:40.602Z,91.37
2023-03-29T01:44:17.570Z,91.01
2023-03-29T01:46:52.433Z,91.22
2023-03-29T01:49:25.787Z,91.18
2023-03-29T01:52:03.488Z,89.64
2023-03-29T01:54:43.663Z,90.07
2023-03-29T01:57:12.328Z,88.45
2023-03-29T01:59:43.676Z,86.82
2023-03-29T02:02:14.822Z,85.91
2023-03-29T02:04:50.173Z,86.12
2023-03-29T02:07:21.529Z,85.92
2023-03-29T02:09:52.716Z,82.83
2023-03-29T02:12:20.879Z,79.57
2023-03-29T02:14:47.638Z,79.78
2023-03-29T02:17:26.323Z,81.14
2023-03-29T02:20:00.799Z,81.22
2023-03-29T02:22:37.613Z,81.39
2023-03-29T02:25:08.988Z,81.26
2023-03-29T02:27:38.108Z,80.59
2023-03-29T02:30:07.485Z,81.23
2023-03-29T02:32:48.918Z,81.72
2023-03-29T02:35:45.795Z,83.14
2023-03-29T02:38:14.772Z,83.13
2023-03-29T02:40:42.972Z,82.44
2023-03-29T02:43:11.783Z,82.58
2023-03-29T02:45:40.568Z,82.88
2023-03-29T02:48:12.555Z,83.82
2023-03-29T02:50:41.772Z,83.64
2023-03-29T02:53:17.177Z,84.52
2023-03-29T02:55:46.946Z,85.44
2023-03-29T02:58:15.595Z,84.91
2023-03-29T03:00:46.712Z,83.38
2023-03-29T03:03:15.667Z,83.12
2023-03-29T03:05:45.006Z,82.35
2023-03-29T03:08:11.851Z,81.38
2023-03-29T03:10:39.357Z,80.05
2023-03-29T03:13:06.721Z,79.21
2023-03-29T03:15:35.954Z,79.36
2023-03-29T03:18:03.853Z,79.19
2023-03-29T03:20:31.255Z,79.40
2023-03-29T03:22:58.557Z,79.54
2023-03-29T03:25:25.906Z,80.92
2023-03-29T03:27:53.212Z,81.22
2023-03-29T03:30:22.666Z,81.98
2023-03-29T03:32:58.219Z,82.62
2023-03-29T03:35:46.393Z,83.20
2023-03-29T03:38:15.402Z,82.84
2023-03-29T03:40:43.516Z,83.81
2023-03-29T03:43:10.464Z,83.87
2023-03-29T03:45:37.304Z,84.33
2023-03-29T03:48:11.805Z,85.39
2023-03-29T03:50:51.240Z,84.88
2023-03-29T03:53:18.897Z,84.46
2023-03-29T03:56:09.314Z,83.79
2023-03-29T03:58:51.770Z,83.22
2023-03-29T04:01:19.726Z,84.67
2023-03-29T04:03:58.081Z,85.10
2023-03-29T04:06:25.505Z,84.77
2023-03-29T04:09:13.072Z,84.93
2023-03-29T04:11:43.110Z,86.01
2023-03-29T04:14:11.229Z,86.87
2023-03-29T04:16:58.436Z,84.42
2023-03-29T04:19:43.813Z,85.00
2023-03-29T04:22:11.108Z,85.16
2023-03-29T04:24:38.101Z,85.17
2023-03-29T04:27:33.345Z,85.30
2023-03-29T04:30:05.152Z,85.42
2023-03-29T04:32:52.287Z,84.94
2023-03-29T04:35:19.325Z,85.95
2023-03-29T04:37:46.194Z,87.14
2023-03-29T04:40:15.522Z,89.14
2023-03-29T04:43:08.149Z,90.90
2023-03-29T04:45:37.350Z,90.89
2023-03-29T04:48:12.982Z,91.32
2023-03-29T04:50:46.814Z,91.06
2023-03-29T04:53:15.455Z,90.23
2023-03-29T04:55:43.775Z,90.39
2023-03-29T04:58:14.738Z,89.23
2023-03-29T05:00:43.076Z,87.84
2023-03-29T05:03:13.519Z,87.47
2023-03-29T05:05:50.730Z,87.22
2023-03-29T05:08:17.919Z,88.71
2023-03-29T05:11:10.517Z,88.01
2023-03-29T05:13:38.034Z,88.38
2023-03-29T05:16:06.875Z,88.98
2023-03-29T05:18:33.889Z,89.09
2023-03-29T05:21:01.065Z,88.70
2023-03-29T05:23:28.962Z,87.20
2023-03-29T05:26:15.482Z,88.38
2023-03-29T05:28:48.417Z,88.88
2023-03-29T05:31:17.070Z,87.73
2023-03-29T05:33:48.238Z,86.32
2023-03-29T05:36:17.552Z,84.15
2023-03-29T05:38:46.793Z,85.54
2023-03-29T05:41:15.932Z,85.54
2023-03-29T05:44:01.626Z,86.57
2023-03-29T05:46:29.726Z,87.31
2023-03-29T05:49:00.877Z,86.10
2023-03-29T05:51:45.799Z,84.92
2023-03-29T05:54:13.138Z,84.76
2023-03-29T05:56:39.935Z,84.40
2023-03-29T05:59:08.523Z,84.21
2023-03-29T06:01:35.907Z,82.88
2023-03-29T06:04:06.625Z,80.95
2023-03-29T06:06:41.719Z,80.50
2023-03-29T06:09:09.525Z,79.96
2023-03-29T06:11:40.835Z,79.42
2023-03-29T06:14:34.104Z,78.34
2023-03-29T06:17:14.759Z,78.08
2023-03-29T06:19:42.256Z,77.65
2023-03-29T06:22:09.048Z,77.48
2023-03-29T06:24:35.878Z,76.36
2023-03-29T06:27:09.114Z,75.98
2023-03-29T06:29:36.301Z,74.76
2023-03-29T06:32:03.375Z,74.71
2023-03-29T06:34:48.075Z,74.94
2023-03-29T06:37:33.000Z,73.03
2023-03-29T06:40:23.017Z,71.10
2023-03-29T06:42:51.142Z,71.46
2023-03-29T06:45:38.093Z,71.29
2023-03-29T06:48:10.757Z,71.34
2023-03-29T06:50:37.762Z,71.89
2023-03-29T06:53:13.427Z,71.50
2023-03-29T06:55:42.149Z,72.77
2023-03-29T06:58:29.165Z,72.96
2023-03-29T07:01:04.861Z,72.49
2023-03-29T07:03:46.686Z,72.53
2023-03-29T07:06:20.449Z,72.49
2023-03-29T07:08:52.347Z,73.23
2023-03-29T07:11:46.707Z,69.08
2023-03-29T07:14:21.974Z,66.08
2023-03-29T07:16:49.603Z,66.11
2023-03-29T07:19:30.342Z,65.11
2023-03-29T07:22:22.249Z,64.73
2023-03-29T07:24:54.339Z,64.62
2023-03-29T07:27:21.188Z,64.90
2023-03-29T07:29:50.071Z,65.66
2023-03-29T07:32:18.003Z,65.97
2023-03-29T07:34:44.774Z,66.50
2023-03-29T07:37:19.698Z,65.87
2023-03-29T07:39:47.374Z,64.71
2023-03-29T07:42:31.366Z,65.29
2023-03-29T07:44:58.664Z,66.29
2023-03-29T07:47:30.631Z,64.26
2023-03-29T07:49:59.293Z,62.43
2023-03-29T07:52:28.069Z,64.02
2023-03-29T07:54:56.150Z,64.84
2023-03-29T07:57:27.743Z,64.48
2023-03-29T07:59:57.043Z,64.10
2023-03-29T08:02:27.473Z,63.98
2023-03-29T08:04:58.953Z,64.81
2023-03-29T08:07:46.100Z,65.66
2023-03-29T08:10:27.870Z,66.69
2023-03-29T08:13:24.062Z,67.72
2023-03-29T08:16:14.801Z,68.27
2023-03-29T08:18:49.550Z,66.56
2023-03-29T08:21:17.317Z,66.27
2023-03-29T08:23:47.758Z,66.84
2023-03-29T08:26:36.449Z,66.67
2023-03-29T08:29:04.131Z,67.52
2023-03-29T08:31:30.873Z,67.57
2023-03-29T08:33:58.131Z,67.89
2023-03-29T08:36:43.669Z,67.65
2023-03-29T08:39:19.696Z,68.81
2023-03-29T08:42:06.719Z,69.97
2023-03-29T08:44:56.078Z,70.02
2023-03-29T08:47:26.859Z,67.62
2023-03-29T08:49:56.592Z,67.06
2023-03-29T08:52:43.256Z,65.74
2023-03-29T08:55:42.856Z,66.37
2023-03-29T08:58:32.726Z,65.25
2023-03-29T09:01:03.596Z,66.15
2023-03-29T09:03:45.396Z,63.54
2023-03-29T09:06:22.076Z,62.30
2023-03-29T09:08:52.675Z,57.90
2023-03-29T09:11:23.735Z,54.90
2023-03-29T09:13:54.164Z,50.67
2023-03-29T09:16:30.619Z,48.89
2023-03-29T09:19:15.649Z,47.60
2023-03-29T09:22:18.805Z,47.94
2023-03-29T09:25:10.823Z,47.61
2023-03-29T09:27:55.768Z,47.22
2023-03-29T09:30:41.692Z,46.97
2023-03-29T09:33:29.443Z,48.14
2023-03-29T09:36:40.655Z,46.65
2023-03-29T09:39:09.873Z,48.03
2023-03-29T09:41:44.911Z,48.68
2023-03-29T09:44:29.817Z,48.61
2023-03-29T09:47:32.610Z,48.10
2023-03-29T09:50:23.082Z,48.00
2023-03-29T09:52:54.588Z,47.59
2023-03-29T09:55:28.717Z,48.28
2023-03-29T09:58:13.737Z,46.98
2023-03-29T10:00:45.395Z,46.80
2023-03-29T10:03:24.553Z,45.77
2023-03-29T10:06:09.934Z,47.12
2023-03-29T10:08:46.264Z,47.67
2023-03-29T10:11:47.734Z,47.81
2023-03-29T10:14:21.305Z,47.82
2023-03-29T10:16:55.854Z,45.98
2023-03-29T10:19:32.973Z,46.59
2023-03-29T10:22:08.421Z,46.67
2023-03-29T10:24:35.203Z,43.55
2023-03-29T10:27:06.929Z,43.79
2023-03-29T10:29:40.240Z,43.97
2023-03-29T10:32:23.079Z,40.27
2023-03-29T10:34:52.162Z,39.63
2023-03-29T10:37:21.152Z,39.82
2023-03-29T10:39:48.988Z,39.95
2023-03-29T10:42:18.576Z,39.18
2023-03-29T10:44:58.183Z,39.63
2023-03-29T10:47:26.142Z,39.89
2023-03-29T10:49:56.832Z,37.94
2023-03-29T10:52:25.198Z,39.12
2023-03-29T10:54:54.617Z,40.35
2023-03-29T10:57:51.860Z,39.56
2023-03-29T11:00:29.046Z,39.98
2023-03-29T11:03:20.222Z,41.62
2023-03-29T11:05:52.525Z,40.25
2023-03-29T11:08:43.649Z,40.94
2023-03-29T11:11:20.024Z,39.75
2023-03-29T11:14:13.667Z,39.57
2023-03-29T11:17:15.884Z,40.32
2023-03-29T11:20:08.371Z,38.68
2023-03-29T11:22:52.373Z,39.38
2023-03-29T11:25:30.152Z,41.11
2023-03-29T11:28:15.725Z,40.11
2023-03-29T11:31:06.355Z,39.64
2023-03-29T11:33:42.279Z,38.67
2023-03-29T11:36:39.311Z,39.25
2023-03-29T11:39:12.194Z,40.92
2023-03-29T11:41:43.962Z,38.98
2023-03-29T11:44:34.219Z,40.19
2023-03-29T11:47:22.720Z,37.29
2023-03-29T11:50:28.111Z,37.94
2023-03-29T11:53:02.238Z,38.57
2023-03-29T11:55:33.849Z,38.60
2023-03-29T11:58:13.286Z,38.88
2023-03-29T12:00:58.339Z,37.73
2023-03-29T12:03:46.216Z,36.98
2023-03-29T12:07:01.753Z,36.84
2023-03-29T12:09:47.877Z,36.72
2023-03-29T12:12:53.146Z,38.06
2023-03-29T12:15:24.973Z,38.30
2023-03-29T12:18:17.950Z,37.74
2023-03-29T12:20:49.850Z,38.53
2023-03-29T12:23:18.005Z,36.66
2023-03-29T12:26:12.020Z,37.24
2023-03-29T12:28:57.344Z,38.67
2023-03-29T12:31:24.192Z,37.27
2023-03-29T12:34:14.194Z,37.70
2023-03-29T12:37:24.679Z,38.60
2023-03-29T12:40:19.203Z,37.21
2023-03-29T12:43:08.717Z,37.96
2023-03-29T12:45:58.200Z,37.25
2023-03-29T12:48:28.098Z,37.49
2023-03-29T12:51:02.818Z,36.81
2023-03-29T12:53:35.768Z,37.82
2023-03-29T12:56:04.049Z,36.89
2023-03-29T12:58:40.308Z,38.30
2023-03-29T13:01:24.961Z,37.60
2023-03-29T13:04:01.718Z,37.27
2023-03-29T13:06:56.351Z,38.71
2023-03-29T13:09:30.079Z,40.78
2023-03-29T13:12:13.056Z,38.49
2023-03-29T13:14:46.429Z,39.89
2023-03-29T13:17:26.005Z,39.55
2023-03-29T13:20:09.547Z,39.85
2023-03-29T13:22:59.217Z,40.17
2023-03-29T13:25:45.150Z,41.00
2023-03-29T13:28:19.971Z,41.70
2023-03-29T13:30:58.938Z,41.29
2023-03-29T13:33:34.647Z,41.75
2023-03-29T13:36:11.776Z,42.73
2023-03-29T13:38:54.339Z,42.14
2023-03-29T13:41:40.389Z,40.91
2023-03-29T13:44:24.995Z,42.30
2023-03-29T13:47:14.037Z,40.93
2023-03-29T13:49:44.592Z,40.16
2023-03-29T13:52:34.540Z,41.12
2023-03-29T13:55:04.324Z,41.10
2023-03-29T13:57:39.685Z,40.77
2023-03-29T14:00:20.226Z,41.86
2023-03-29T14:02:58.471Z,41.01
2023-03-29T14:05:41.897Z,41.42
2023-03-29T14:08:36.005Z,41.31
2023-03-29T14:11:06.974Z,41.40
2023-03-29T14:13:34.892Z,41.23
2023-03-29T14:16:06.945Z,41.43
2023-03-29T14:18:37.955Z,42.78
2023-03-29T14:21:05.732Z,41.46
2023-03-29T14:23:35.236Z,42.35
2023-03-29T14:26:16.648Z,43.14
2023-03-29T14:28:48.711Z,42.72
2023-03-29T14:31:21.841Z,43.29
2023-03-29T14:33:57.491Z,43.17
2023-03-29T14:36:27.190Z,44.15
2023-03-29T14:38:59.530Z,42.61
2023-03-29T14:41:31.293Z,42.33
2023-03-29T14:43:59.317Z,43.82
2023-03-29T14:46:27.337Z,43.40
2023-03-29T14:48:55.876Z,43.40
2023-03-29T14:51:28.590Z,43.27
2023-03-29T14:53:57.537Z,43.70
2023-03-29T14:56:26.357Z,44.53
2023-03-29T14:58:56.960Z,45.24
2023-03-29T15:01:26.197Z,45.84
2023-03-29T15:04:11.053Z,46.58
2023-03-29T15:06:42.493Z,45.74
2023-03-29T15:09:19.909Z,45.20
2023-03-29T15:11:52.680Z,45.36
2023-03-29T15:14:21.134Z,45.59
2023-03-29T15:16:50.181Z,45.35
2023-03-29T15:19:21.025Z,45.93
2023-03-29T15:21:49.907Z,45.81
2023-03-29T15:24:28.548Z,45.50
2023-03-29T15:27:17.046Z,45.84
2023-03-29T15:29:46.935Z,46.61
2023-03-29T15:32:25.693Z,47.02
2023-03-29T15:35:04.994Z,47.81
2023-03-29T15:37:32.130Z,47.08
2023-03-29T15:39:59.076Z,46.83
2023-03-29T15:42:26.352Z,46.58
2023-03-29T15:44:56.653Z,47.24
2023-03-29T15:47:24.074Z,48.40
2023-03-29T15:49:50.934Z,48.71
2023-03-29T15:52:17.723Z,49.34
2023-03-29T15:54:44.455Z,49.44
2023-03-29T15:57:15.206Z,49.46
2023-03-29T15:59:43.570Z,49.53
2023-03-29T16:02:17.545Z,51.02
2023-03-29T16:04:44.533Z,51.27
2023-03-29T16:07:17.094Z,51.68
2023-03-29T16:09:45.957Z,53.22
2023-03-29T16:12:13.543Z,54.38
2023-03-29T16:14:42.638Z,54.09
2023-03-29T16:17:09.919Z,53.37
2023-03-29T16:19:36.680Z,54.55
2023-03-29T16:22:07.378Z,55.98
2023-03-29T16:24:35.610Z,56.04
2023-03-29T16:27:02.836Z,55.85
2023-03-29T16:29:30.430Z,56.77
2023-03-29T16:31:57.658Z,58.01
2023-03-29T16:34:24.745Z,59.58
2023-03-29T16:36:53.053Z,60.12
2023-03-29T16:39:19.919Z,59.92
2023-03-29T16:41:48.852Z,60.58
2023-03-29T16:44:18.988Z,59.65
2023-03-29T16:46:47.310Z,59.76
2023-03-29T16:49:18.183Z,60.16
2023-03-29T16:51:47.204Z,61.32
2023-03-29T16:54:15.026Z,61.84
2023-03-29T16:56:41.874Z,62.73
2023-03-29T16:59:09.347Z,62.35
2023-03-29T17:01:36.585Z,61.40
2023-03-29T17:04:04.193Z,59.05
2023-03-29T17:06:32.674Z,62.13
2023-03-29T17:09:00.764Z,61.28
2023-03-29T17:11:28.331Z,61.68
2023-03-29T17:13:56.113Z,62.55
2023-03-29T17:16:23.035Z,63.66
2023-03-29T17:18:50.180Z,65.40
2023-03-29T17:21:17.129Z,66.67
2023-03-29T17:23:43.877Z,68.26
2023-03-29T17:26:11.899Z,68.91
2023-03-29T17:28:38.995Z,68.17
2023-03-29T17:31:09.735Z,67.13
2023-03-29T17:33:36.691Z,68.03
2023-03-29T17:36:05.856Z,69.47
2023-03-29T17:38:34.205Z,69.03
2023-03-29T17:41:02.784Z,69.57
2023-03-29T17:43:29.593Z,71.88
2023-03-29T17:45:56.693Z,72.94
2023-03-29T17:48:24.386Z,73.02
2023-03-29T17:50:51.508Z,73.35
2023-03-29T17:53:18.253Z,71.70
2023-03-29T17:55:45.038Z,69.17
2023-03-29T17:58:11.849Z,70.18
2023-03-29T18:00:38.721Z,70.73
2023-03-29T18:03:05.908Z,68.31
2023-03-29T18:05:34.309Z,68.56
2023-03-29T18:08:01.444Z,70.12
2023-03-29T18:10:28.291Z,70.14
2023-03-29T18:12:55.190Z,70.11
2023-03-29T18:15:22.042Z,68.24
2023-03-29T18:17:48.890Z,67.98
2023-03-29T18:20:16.218Z,65.34
2023-03-29T18:22:44.340Z,64.84
2023-03-29T18:25:11.314Z,66.79
2023-03-29T18:27:39.414Z,67.87
2023-03-29T18:30:08.663Z,70.75
2023-03-29T18:32:36.382Z,73.25
2023-03-29T18:35:03.542Z,74.25
2023-03-29T18:37:30.466Z,73.58
2023-03-29T18:39:57.213Z,65.10
2023-03-29T18:42:24.011Z,63.16
2023-03-29T18:44:51.282Z,64.00
2023-03-29T18:47:18.459Z,65.20
2023-03-29T18:49:45.648Z,62.86
2023-03-29T18:52:12.559Z,63.29
2023-03-29T18:54:39.461Z,62.37
2023-03-29T18:57:06.411Z,62.93
2023-03-29T18:59:35.909Z,63.95
2023-03-29T19:02:03.523Z,64.61
2023-03-29T19:04:30.525Z,66.10
2023-03-29T19:07:01.799Z,65.69
2023-03-29T19:09:28.855Z,66.51
2023-03-29T19:11:55.674Z,67.32
2023-03-29T19:14:25.239Z,67.92
2023-03-29T19:16:52.799Z,68.82
2023-03-29T19:19:21.387Z,68.38
2023-03-29T19:21:48.830Z,67.48
2023-03-29T19:24:16.594Z,68.06
2023-03-29T19:26:44.470Z,67.59
2023-03-29T19:29:11.765Z,68.91
2023-03-29T19:31:39.001Z,69.20
2023-03-29T19:34:07.110Z,69.53
2023-03-29T19:36:33.963Z,69.11
2023-03-29T19:39:01.244Z,69.03
2023-03-29T19:41:28.622Z,69.63
2023-03-29T19:43:55.535Z,70.10
2023-03-29T19:46:22.858Z,70.11
2023-03-29T19:48:51.707Z,70.61
2023-03-29T19:51:18.718Z,71.45
2023-03-29T19:53:45.418Z,72.84
2023-03-29T19:56:14.396Z,71.95
2023-03-29T19:58:41.356Z,72.05
2023-03-29T20:01:08.122Z,72.47
2023-03-29T20:03:36.158Z,72.68
2023-03-29T20:06:03.462Z,72.35
2023-03-29T20:08:30.545Z,72.68
2023-03-29T20:11:03.556Z,71.94
2023-03-29T20:13:38.063Z,71.46
2023-03-29T20:16:16.291Z,70.90
2023-03-29T20:18:46.676Z,70.67
2023-03-29T20:21:16.484Z,70.96
2023-03-29T20:23:44.215Z,71.52
2023-03-29T20:26:11.195Z,71.64
2023-03-29T20:28:38.171Z,72.35
2023-03-29T20:31:06.862Z,73.20
2023-03-29T20:33:33.840Z,73.91
2023-03-29T20:36:01.014Z,75.09
2023-03-29T20:38:28.020Z,74.71
2023-03-29T20:40:55.439Z,75.70
2023-03-29T20:43:22.381Z,78.08
2023-03-29T20:45:52.622Z,79.28
2023-03-29T20:48:23.220Z,79.94
2023-03-29T20:50:50.973Z,82.38
2023-03-29T20:53:18.363Z,81.93
2023-03-29T20:55:45.410Z,83.27
2023-03-29T20:58:12.310Z,84.07
2023-03-29T21:00:40.445Z,84.29
2023-03-29T21:03:08.627Z,85.10
2023-03-29T21:05:35.786Z,82.22
2023-03-29T21:08:04.505Z,79.18
2023-03-29T21:10:31.950Z,75.13
2023-03-29T21:13:02.597Z,72.92
2023-03-29T21:15:30.665Z,70.89
2023-03-29T21:17:58.376Z,70.34
2023-03-29T21:20:25.458Z,70.62
2023-03-29T21:22:52.198Z,73.15
2023-03-29T21:25:19.376Z,73.46
2023-03-29T21:27:46.301Z,70.65
2023-03-29T21:30:13.322Z,70.77
2023-03-29T21:32:40.155Z,70.42
2023-03-29T21:35:07.578Z,69.89
2023-03-29T21:37:34.383Z,69.37
2023-03-29T21:40:05.505Z,70.51
2023-03-29T21:42:33.407Z,69.62
2023-03-29T21:45:01.719Z,70.33
2023-03-29T21:47:28.524Z,71.02
2023-03-29T21:49:55.362Z,70.75
2023-03-29T21:52:22.461Z,70.69
2023-03-29T21:54:49.207Z,70.45
2023-03-29T21:57:16.291Z,71.04
2023-03-29T21:59:43.237Z,71.28
2023-03-29T22:02:10.282Z,71.98
2023-03-29T22:04:37.785Z,72.03
2023-03-29T22:07:06.018Z,70.60
2023-03-29T22:09:35.002Z,71.13
2023-03-29T22:12:02.972Z,71.68
2023-03-29T22:14:34.840Z,72.70
2023-03-29T22:17:05.746Z,72.56
2023-03-29T22:19:34.789Z,73.24
2023-03-29T22:22:01.690Z,73.48
2023-03-29T22:24:29.163Z,73.54
2023-03-29T22:26:56.200Z,72.98
2023-03-29T22:29:23.136Z,73.18
2023-03-29T22:31:50.553Z,73.89
2023-03-29T22:34:17.495Z,74.67
2023-03-29T22:36:44.278Z,75.25
2023-03-29T22:39:12.057Z,75.08
2023-03-29T22:41:39.065Z,75.52
2023-03-29T22:44:05.936Z,76.41
2023-03-29T22:46:32.796Z,77.13
2023-03-29T22:48:59.704Z,78.41
2023-03-29T22:51:27.264Z,79.52
2023-03-29T22:53:54.070Z,80.29
2023-03-29T22:56:22.157Z,80.89
2023-03-29T22:58:49.209Z,80.16
2023-03-29T23:01:16.257Z,81.32
2023-03-29T23:03:43.214Z,82.25
2023-03-29T23:06:10.282Z,82.86
2023-03-29T23:08:37.208Z,82.83
2023-03-29T23:11:05.183Z,83.07
2023-03-29T23:13:33.636Z,84.44
2023-03-29T23:16:02.459Z,86.03
2023-03-29T23:18:31.727Z,87.61
2023-03-29T23:20:59.065Z,88.23
2023-03-29T23:23:27.578Z,89.69
2023-03-29T23:25:55.851Z,90.96
2023-03-29T23:28:30.225Z,91.26
2023-03-29T23:31:18.502Z,90.02
2023-03-29T23:33:45.729Z,91.19
2023-03-29T23:36:15.328Z,91.86
2023-03-29T23:38:44.606Z,90.89
2023-03-29T23:41:12.931Z,91.35
2023-03-29T23:43:42.014Z,93.12
2023-03-29T23:46:14.244Z,96.64
2023-03-29T23:48:49.099Z,97.64
2023-03-29T23:51:23.258Z,97.87
2023-03-29T23:53:50.718Z,99.71
2023-03-29T23:56:17.715Z,100.00
2023-03-29T23:58:44.887Z,100.00
